sensor_id;sensor_type;location;lat;lon;timestamp;P1;durP1;ratioP1;P2;durP2;ratioP2
54263;SDS011;40178;53.042;6.406;2023-07-13T00:00:28;8.73;;;1.77;;
54263;SDS011;40178;53.042;6.406;2023-07-13T00:02:55;7.32;;;1.90;;
54263;SDS011;40178;53.042;6.406;2023-07-13T00:05:21;7.85;;;2.38;;
54263;SDS011;40178;53.042;6.406;2023-07-13T00:07:48;8.68;;;2.38;;
54263;SDS011;40178;53.042;6.406;2023-07-13T00:10:15;12.30;;;2.10;;
54263;SDS011;40178;53.042;6.406;2023-07-13T00:12:41;6.28;;;1.90;;
54263;SDS011;40178;53.042;6.406;2023-07-13T00:15:11;7.82;;;2.40;;
54263;SDS011;40178;53.042;6.406;2023-07-13T00:17:41;7.65;;;2.22;;
54263;SDS011;40178;53.042;6.406;2023-07-13T00:20:09;7.88;;;2.22;;
54263;SDS011;40178;53.042;6.406;2023-07-13T00:22:36;9.25;;;2.22;;
54263;SDS011;40178;53.042;6.406;2023-07-13T00:25:02;7.80;;;1.85;;
54263;SDS011;40178;53.042;6.406;2023-07-13T00:27:28;8.60;;;2.08;;
54263;SDS011;40178;53.042;6.406;2023-07-13T00:29:56;8.43;;;1.90;;
54263;SDS011;40178;53.042;6.406;2023-07-13T00:32:22;7.97;;;2.03;;
54263;SDS011;40178;53.042;6.406;2023-07-13T00:34:50;7.22;;;2.20;;
54263;SDS011;40178;53.042;6.406;2023-07-13T00:37:16;5.40;;;2.30;;
54263;SDS011;40178;53.042;6.406;2023-07-13T00:39:42;7.85;;;1.75;;
54263;SDS011;40178;53.042;6.406;2023-07-13T00:42:07;7.97;;;2.13;;
54263;SDS011;40178;53.042;6.406;2023-07-13T00:44:33;6.22;;;2.25;;
54263;SDS011;40178;53.042;6.406;2023-07-13T00:46:59;7.90;;;2.75;;
54263;SDS011;40178;53.042;6.406;2023-07-13T00:49:25;7.68;;;1.92;;
54263;SDS011;40178;53.042;6.406;2023-07-13T00:51:58;8.90;;;1.95;;
54263;SDS011;40178;53.042;6.406;2023-07-13T00:54:38;8.07;;;2.45;;
54263;SDS011;40178;53.042;6.406;2023-07-13T00:57:09;11.68;;;2.67;;
54263;SDS011;40178;53.042;6.406;2023-07-13T00:59:39;8.30;;;2.33;;
54263;SDS011;40178;53.042;6.406;2023-07-13T01:02:08;8.60;;;3.28;;
54263;SDS011;40178;53.042;6.406;2023-07-13T01:04:35;11.75;;;2.72;;
54263;SDS011;40178;53.042;6.406;2023-07-13T01:07:00;8.20;;;2.45;;
54263;SDS011;40178;53.042;6.406;2023-07-13T01:09:26;10.65;;;2.53;;
54263;SDS011;40178;53.042;6.406;2023-07-13T01:11:52;10.32;;;3.33;;
54263;SDS011;40178;53.042;6.406;2023-07-13T01:14:18;10.75;;;2.85;;
54263;SDS011;40178;53.042;6.406;2023-07-13T01:16:45;8.40;;;3.13;;
54263;SDS011;40178;53.042;6.406;2023-07-13T01:22:08;12.05;;;3.05;;
54263;SDS011;40178;53.042;6.406;2023-07-13T01:24:37;11.10;;;2.95;;
54263;SDS011;40178;53.042;6.406;2023-07-13T01:27:04;12.50;;;2.90;;
54263;SDS011;40178;53.042;6.406;2023-07-13T01:29:32;9.15;;;2.88;;
54263;SDS011;40178;53.042;6.406;2023-07-13T01:31:59;18.63;;;3.33;;
54263;SDS011;40178;53.042;6.406;2023-07-13T01:34:26;12.07;;;2.95;;
54263;SDS011;40178;53.042;6.406;2023-07-13T01:36:52;12.07;;;3.28;;
54263;SDS011;40178;53.042;6.406;2023-07-13T01:39:20;11.85;;;3.00;;
54263;SDS011;40178;53.042;6.406;2023-07-13T01:41:47;7.90;;;2.50;;
54263;SDS011;40178;53.042;6.406;2023-07-13T01:44:12;12.45;;;4.15;;
54263;SDS011;40178;53.042;6.406;2023-07-13T01:46:38;10.85;;;2.97;;
54263;SDS011;40178;53.042;6.406;2023-07-13T01:49:03;9.63;;;2.70;;
54263;SDS011;40178;53.042;6.406;2023-07-13T01:51:29;14.60;;;3.38;;
54263;SDS011;40178;53.042;6.406;2023-07-13T01:53:55;11.98;;;3.28;;
54263;SDS011;40178;53.042;6.406;2023-07-13T01:56:20;9.93;;;3.03;;
54263;SDS011;40178;53.042;6.406;2023-07-13T01:58:46;9.60;;;3.20;;
54263;SDS011;40178;53.042;6.406;2023-07-13T02:01:12;10.77;;;2.75;;
54263;SDS011;40178;53.042;6.406;2023-07-13T02:03:37;13.75;;;3.63;;
54263;SDS011;40178;53.042;6.406;2023-07-13T02:06:03;10.75;;;3.45;;
54263;SDS011;40178;53.042;6.406;2023-07-13T02:08:29;10.77;;;3.05;;
54263;SDS011;40178;53.042;6.406;2023-07-13T02:10:54;12.00;;;2.90;;
54263;SDS011;40178;53.042;6.406;2023-07-13T02:13:20;12.65;;;3.97;;
54263;SDS011;40178;53.042;6.406;2023-07-13T02:15:45;12.27;;;3.58;;
54263;SDS011;40178;53.042;6.406;2023-07-13T02:18:11;10.40;;;2.78;;
54263;SDS011;40178;53.042;6.406;2023-07-13T02:20:42;8.13;;;2.53;;
54263;SDS011;40178;53.042;6.406;2023-07-13T02:23:08;9.43;;;2.95;;
54263;SDS011;40178;53.042;6.406;2023-07-13T02:25:34;10.98;;;3.03;;
54263;SDS011;40178;53.042;6.406;2023-07-13T02:27:59;9.70;;;2.85;;
54263;SDS011;40178;53.042;6.406;2023-07-13T02:30:25;9.93;;;3.55;;
54263;SDS011;40178;53.042;6.406;2023-07-13T02:32:52;12.27;;;2.90;;
54263;SDS011;40178;53.042;6.406;2023-07-13T02:35:17;8.05;;;3.33;;
54263;SDS011;40178;53.042;6.406;2023-07-13T02:37:43;12.07;;;3.60;;
54263;SDS011;40178;53.042;6.406;2023-07-13T02:40:08;11.85;;;2.67;;
54263;SDS011;40178;53.042;6.406;2023-07-13T02:42:34;10.90;;;3.88;;
54263;SDS011;40178;53.042;6.406;2023-07-13T02:45:00;8.55;;;2.55;;
54263;SDS011;40178;53.042;6.406;2023-07-13T02:47:26;7.25;;;3.00;;
54263;SDS011;40178;53.042;6.406;2023-07-13T02:49:51;8.65;;;2.83;;
54263;SDS011;40178;53.042;6.406;2023-07-13T02:52:17;7.30;;;2.33;;
54263;SDS011;40178;53.042;6.406;2023-07-13T02:54:43;7.82;;;2.78;;
54263;SDS011;40178;53.042;6.406;2023-07-13T02:57:09;9.52;;;2.78;;
54263;SDS011;40178;53.042;6.406;2023-07-13T02:59:34;10.52;;;2.60;;
54263;SDS011;40178;53.042;6.406;2023-07-13T03:02:01;9.48;;;2.70;;
54263;SDS011;40178;53.042;6.406;2023-07-13T03:04:27;9.05;;;2.63;;
54263;SDS011;40178;53.042;6.406;2023-07-13T03:06:52;7.60;;;2.25;;
54263;SDS011;40178;53.042;6.406;2023-07-13T03:09:23;5.68;;;2.40;;
54263;SDS011;40178;53.042;6.406;2023-07-13T03:11:49;12.07;;;2.65;;
54263;SDS011;40178;53.042;6.406;2023-07-13T03:14:17;9.73;;;2.58;;
54263;SDS011;40178;53.042;6.406;2023-07-13T03:16:42;8.07;;;2.50;;
54263;SDS011;40178;53.042;6.406;2023-07-13T03:19:08;8.38;;;2.63;;
54263;SDS011;40178;53.042;6.406;2023-07-13T03:21:34;10.45;;;3.03;;
54263;SDS011;40178;53.042;6.406;2023-07-13T03:23:59;9.90;;;2.85;;
54263;SDS011;40178;53.042;6.406;2023-07-13T03:26:25;9.02;;;2.50;;
54263;SDS011;40178;53.042;6.406;2023-07-13T03:28:51;10.55;;;2.65;;
54263;SDS011;40178;53.042;6.406;2023-07-13T03:31:20;9.00;;;2.60;;
54263;SDS011;40178;53.042;6.406;2023-07-13T03:33:49;12.98;;;3.72;;
54263;SDS011;40178;53.042;6.406;2023-07-13T03:36:16;7.68;;;2.72;;
54263;SDS011;40178;53.042;6.406;2023-07-13T03:38:45;8.50;;;2.67;;
54263;SDS011;40178;53.042;6.406;2023-07-13T03:41:13;13.82;;;2.72;;
54263;SDS011;40178;53.042;6.406;2023-07-13T03:43:39;10.65;;;3.20;;
54263;SDS011;40178;53.042;6.406;2023-07-13T03:46:04;11.65;;;3.08;;
54263;SDS011;40178;53.042;6.406;2023-07-13T03:48:30;14.57;;;3.85;;
54263;SDS011;40178;53.042;6.406;2023-07-13T03:50:56;8.75;;;3.08;;
54263;SDS011;40178;53.042;6.406;2023-07-13T03:53:21;9.55;;;2.97;;
54263;SDS011;40178;53.042;6.406;2023-07-13T03:55:47;14.75;;;3.30;;
54263;SDS011;40178;53.042;6.406;2023-07-13T03:58:34;8.98;;;3.33;;
54263;SDS011;40178;53.042;6.406;2023-07-13T04:01:03;9.75;;;3.55;;
54263;SDS011;40178;53.042;6.406;2023-07-13T04:03:30;10.02;;;3.55;;
54263;SDS011;40178;53.042;6.406;2023-07-13T04:06:01;10.48;;;3.65;;
54263;SDS011;40178;53.042;6.406;2023-07-13T04:08:28;15.88;;;3.53;;
54263;SDS011;40178;53.042;6.406;2023-07-13T04:10:55;12.05;;;3.40;;
54263;SDS011;40178;53.042;6.406;2023-07-13T04:13:22;12.75;;;3.35;;
54263;SDS011;40178;53.042;6.406;2023-07-13T04:15:49;8.30;;;3.13;;
54263;SDS011;40178;53.042;6.406;2023-07-13T04:18:14;9.35;;;3.20;;
54263;SDS011;40178;53.042;6.406;2023-07-13T04:20:40;11.35;;;3.60;;
54263;SDS011;40178;53.042;6.406;2023-07-13T04:23:06;14.98;;;3.55;;
54263;SDS011;40178;53.042;6.406;2023-07-13T04:25:31;8.02;;;3.28;;
54263;SDS011;40178;53.042;6.406;2023-07-13T04:27:57;9.30;;;3.15;;
54263;SDS011;40178;53.042;6.406;2023-07-13T04:30:23;11.68;;;4.10;;
54263;SDS011;40178;53.042;6.406;2023-07-13T04:32:49;12.18;;;3.15;;
54263;SDS011;40178;53.042;6.406;2023-07-13T04:35:17;9.20;;;3.55;;
54263;SDS011;40178;53.042;6.406;2023-07-13T04:37:46;10.68;;;3.20;;
54263;SDS011;40178;53.042;6.406;2023-07-13T04:40:15;10.93;;;3.42;;
54263;SDS011;40178;53.042;6.406;2023-07-13T04:42:42;12.88;;;3.25;;
54263;SDS011;40178;53.042;6.406;2023-07-13T04:45:07;11.55;;;3.55;;
54263;SDS011;40178;53.042;6.406;2023-07-13T04:47:33;13.05;;;3.88;;
54263;SDS011;40178;53.042;6.406;2023-07-13T04:49:59;12.40;;;3.53;;
54263;SDS011;40178;53.042;6.406;2023-07-13T04:52:24;9.25;;;3.33;;
54263;SDS011;40178;53.042;6.406;2023-07-13T04:54:50;9.57;;;3.33;;
54263;SDS011;40178;53.042;6.406;2023-07-13T04:57:16;12.80;;;2.83;;
54263;SDS011;40178;53.042;6.406;2023-07-13T04:59:41;11.30;;;3.10;;
54263;SDS011;40178;53.042;6.406;2023-07-13T05:02:07;9.85;;;3.03;;
54263;SDS011;40178;53.042;6.406;2023-07-13T05:04:33;11.88;;;2.85;;
54263;SDS011;40178;53.042;6.406;2023-07-13T05:06:58;9.75;;;2.95;;
54263;SDS011;40178;53.042;6.406;2023-07-13T05:09:24;14.85;;;3.92;;
54263;SDS011;40178;53.042;6.406;2023-07-13T05:11:50;12.75;;;3.20;;
54263;SDS011;40178;53.042;6.406;2023-07-13T05:14:16;8.98;;;3.28;;
54263;SDS011;40178;53.042;6.406;2023-07-13T05:16:42;12.07;;;3.05;;
54263;SDS011;40178;53.042;6.406;2023-07-13T05:19:08;11.75;;;2.80;;
54263;SDS011;40178;53.042;6.406;2023-07-13T05:21:34;9.07;;;3.88;;
54263;SDS011;40178;53.042;6.406;2023-07-13T05:24:00;10.95;;;2.63;;
54263;SDS011;40178;53.042;6.406;2023-07-13T05:26:25;8.75;;;2.70;;
54263;SDS011;40178;53.042;6.406;2023-07-13T05:28:51;6.20;;;2.58;;
54263;SDS011;40178;53.042;6.406;2023-07-13T05:31:16;10.18;;;3.92;;
54263;SDS011;40178;53.042;6.406;2023-07-13T05:33:42;10.55;;;2.80;;
54263;SDS011;40178;53.042;6.406;2023-07-13T05:36:08;7.32;;;2.63;;
54263;SDS011;40178;53.042;6.406;2023-07-13T05:38:33;8.60;;;2.47;;
54263;SDS011;40178;53.042;6.406;2023-07-13T05:40:59;9.63;;;2.97;;
54263;SDS011;40178;53.042;6.406;2023-07-13T05:43:25;8.27;;;2.65;;
54263;SDS011;40178;53.042;6.406;2023-07-13T05:45:55;5.50;;;2.10;;
54263;SDS011;40178;53.042;6.406;2023-07-13T05:48:21;8.35;;;2.28;;
54263;SDS011;40178;53.042;6.406;2023-07-13T05:50:47;9.65;;;3.03;;
54263;SDS011;40178;53.042;6.406;2023-07-13T05:53:14;10.25;;;2.50;;
54263;SDS011;40178;53.042;6.406;2023-07-13T05:55:43;8.38;;;2.08;;
54263;SDS011;40178;53.042;6.406;2023-07-13T05:58:13;8.38;;;2.70;;
54263;SDS011;40178;53.042;6.406;2023-07-13T06:00:39;7.22;;;2.22;;
54263;SDS011;40178;53.042;6.406;2023-07-13T06:03:05;7.95;;;2.13;;
54263;SDS011;40178;53.042;6.406;2023-07-13T06:05:31;9.13;;;2.97;;
54263;SDS011;40178;53.042;6.406;2023-07-13T06:07:58;5.82;;;2.20;;
54263;SDS011;40178;53.042;6.406;2023-07-13T06:10:27;5.07;;;2.20;;
54263;SDS011;40178;53.042;6.406;2023-07-13T06:12:59;7.97;;;2.10;;
54263;SDS011;40178;53.042;6.406;2023-07-13T06:15:24;6.80;;;2.95;;
54263;SDS011;40178;53.042;6.406;2023-07-13T06:17:50;7.55;;;2.00;;
54263;SDS011;40178;53.042;6.406;2023-07-13T06:20:15;8.80;;;2.38;;
54263;SDS011;40178;53.042;6.406;2023-07-13T06:22:50;7.07;;;2.17;;
54263;SDS011;40178;53.042;6.406;2023-07-13T06:25:16;8.32;;;2.47;;
54263;SDS011;40178;53.042;6.406;2023-07-13T06:27:55;10.10;;;2.38;;
54263;SDS011;40178;53.042;6.406;2023-07-13T06:30:20;5.97;;;2.40;;
54263;SDS011;40178;53.042;6.406;2023-07-13T06:32:46;7.78;;;2.17;;
54263;SDS011;40178;53.042;6.406;2023-07-13T06:35:11;5.78;;;2.08;;
54263;SDS011;40178;53.042;6.406;2023-07-13T06:37:38;6.68;;;2.08;;
54263;SDS011;40178;53.042;6.406;2023-07-13T06:40:04;6.15;;;1.92;;
54263;SDS011;40178;53.042;6.406;2023-07-13T06:42:31;7.90;;;2.30;;
54263;SDS011;40178;53.042;6.406;2023-07-13T06:44:56;8.02;;;2.08;;
54263;SDS011;40178;53.042;6.406;2023-07-13T06:47:22;8.18;;;1.85;;
54263;SDS011;40178;53.042;6.406;2023-07-13T06:49:48;5.63;;;1.90;;
54263;SDS011;40178;53.042;6.406;2023-07-13T06:52:13;7.85;;;2.10;;
54263;SDS011;40178;53.042;6.406;2023-07-13T06:54:39;9.13;;;2.10;;
54263;SDS011;40178;53.042;6.406;2023-07-13T06:57:04;7.60;;;1.77;;
54263;SDS011;40178;53.042;6.406;2023-07-13T06:59:30;5.70;;;1.67;;
54263;SDS011;40178;53.042;6.406;2023-07-13T07:01:56;7.57;;;1.80;;
54263;SDS011;40178;53.042;6.406;2023-07-13T07:04:21;5.85;;;1.80;;
54263;SDS011;40178;53.042;6.406;2023-07-13T07:06:47;5.85;;;1.80;;
54263;SDS011;40178;53.042;6.406;2023-07-13T07:09:13;5.90;;;1.55;;
54263;SDS011;40178;53.042;6.406;2023-07-13T07:11:38;6.72;;;2.05;;
54263;SDS011;40178;53.042;6.406;2023-07-13T07:14:04;5.53;;;2.15;;
54263;SDS011;40178;53.042;6.406;2023-07-13T07:16:30;6.97;;;1.63;;
54263;SDS011;40178;53.042;6.406;2023-07-13T07:18:55;4.80;;;1.48;;
54263;SDS011;40178;53.042;6.406;2023-07-13T07:21:21;7.65;;;2.00;;
54263;SDS011;40178;53.042;6.406;2023-07-13T07:23:48;6.88;;;2.38;;
54263;SDS011;40178;53.042;6.406;2023-07-13T07:26:14;5.70;;;1.55;;
54263;SDS011;40178;53.042;6.406;2023-07-13T07:28:40;4.63;;;1.92;;
54263;SDS011;40178;53.042;6.406;2023-07-13T07:31:05;5.57;;;1.95;;
54263;SDS011;40178;53.042;6.406;2023-07-13T07:33:32;5.55;;;1.73;;
54263;SDS011;40178;53.042;6.406;2023-07-13T07:35:59;6.38;;;1.67;;
54263;SDS011;40178;53.042;6.406;2023-07-13T07:38:25;7.43;;;1.95;;
54263;SDS011;40178;53.042;6.406;2023-07-13T07:40:51;6.57;;;1.40;;
54263;SDS011;40178;53.042;6.406;2023-07-13T07:43:17;6.22;;;1.63;;
54263;SDS011;40178;53.042;6.406;2023-07-13T07:45:44;5.18;;;1.30;;
54263;SDS011;40178;53.042;6.406;2023-07-13T07:48:10;5.25;;;1.75;;
54263;SDS011;40178;53.042;6.406;2023-07-13T07:50:36;6.93;;;1.80;;
54263;SDS011;40178;53.042;6.406;2023-07-13T07:53:03;5.30;;;1.20;;
54263;SDS011;40178;53.042;6.406;2023-07-13T07:55:36;4.22;;;1.33;;
54263;SDS011;40178;53.042;6.406;2023-07-13T07:58:02;6.22;;;1.40;;
54263;SDS011;40178;53.042;6.406;2023-07-13T08:00:27;3.78;;;1.10;;
54263;SDS011;40178;53.042;6.406;2023-07-13T08:02:58;6.13;;;1.92;;
54263;SDS011;40178;53.042;6.406;2023-07-13T08:05:27;3.95;;;1.10;;
54263;SDS011;40178;53.042;6.406;2023-07-13T08:08:08;4.28;;;1.55;;
54263;SDS011;40178;53.042;6.406;2023-07-13T08:10:37;5.38;;;1.10;;
54263;SDS011;40178;53.042;6.406;2023-07-13T08:13:02;3.30;;;1.17;;
54263;SDS011;40178;53.042;6.406;2023-07-13T08:15:28;4.80;;;1.55;;
54263;SDS011;40178;53.042;6.406;2023-07-13T08:17:54;3.65;;;1.10;;
54263;SDS011;40178;53.042;6.406;2023-07-13T08:20:20;3.45;;;1.45;;
54263;SDS011;40178;53.042;6.406;2023-07-13T08:22:45;4.18;;;1.02;;
54263;SDS011;40178;53.042;6.406;2023-07-13T08:25:11;3.60;;;1.10;;
54263;SDS011;40178;53.042;6.406;2023-07-13T08:27:37;4.28;;;1.30;;
54263;SDS011;40178;53.042;6.406;2023-07-13T08:30:02;6.10;;;1.17;;
54263;SDS011;40178;53.042;6.406;2023-07-13T08:32:28;4.50;;;1.20;;
54263;SDS011;40178;53.042;6.406;2023-07-13T08:34:54;4.97;;;1.20;;
54263;SDS011;40178;53.042;6.406;2023-07-13T08:37:19;3.67;;;1.30;;
54263;SDS011;40178;53.042;6.406;2023-07-13T08:39:45;4.82;;;1.63;;
54263;SDS011;40178;53.042;6.406;2023-07-13T08:42:13;5.13;;;1.60;;
54263;SDS011;40178;53.042;6.406;2023-07-13T08:47:37;4.45;;;1.48;;
54263;SDS011;40178;53.042;6.406;2023-07-13T08:50:10;5.55;;;2.20;;
54263;SDS011;40178;53.042;6.406;2023-07-13T08:52:38;6.10;;;1.90;;
54263;SDS011;40178;53.042;6.406;2023-07-13T08:55:29;5.25;;;1.65;;
54263;SDS011;40178;53.042;6.406;2023-07-13T08:58:03;4.03;;;1.60;;
54263;SDS011;40178;53.042;6.406;2023-07-13T09:03:18;5.68;;;1.77;;
54263;SDS011;40178;53.042;6.406;2023-07-13T09:05:49;6.50;;;2.10;;
54263;SDS011;40178;53.042;6.406;2023-07-13T09:11:05;5.07;;;1.60;;
54263;SDS011;40178;53.042;6.406;2023-07-13T09:13:54;5.97;;;2.10;;
54263;SDS011;40178;53.042;6.406;2023-07-13T09:16:43;5.10;;;2.03;;
54263;SDS011;40178;53.042;6.406;2023-07-13T09:19:14;8.43;;;2.60;;
54263;SDS011;40178;53.042;6.406;2023-07-13T09:21:48;5.13;;;1.88;;
54263;SDS011;40178;53.042;6.406;2023-07-13T09:24:28;6.38;;;2.60;;
54263;SDS011;40178;53.042;6.406;2023-07-13T09:27:19;6.45;;;2.20;;
54263;SDS011;40178;53.042;6.406;2023-07-13T09:29:50;5.90;;;2.45;;
54263;SDS011;40178;53.042;6.406;2023-07-13T09:32:23;4.35;;;1.88;;
54263;SDS011;40178;53.042;6.406;2023-07-13T09:34:54;7.40;;;2.08;;
54263;SDS011;40178;53.042;6.406;2023-07-13T09:37:24;5.43;;;2.53;;
54263;SDS011;40178;53.042;6.406;2023-07-13T09:39:55;8.32;;;3.40;;
54263;SDS011;40178;53.042;6.406;2023-07-13T09:42:23;7.30;;;2.80;;
54263;SDS011;40178;53.042;6.406;2023-07-13T09:44:53;7.15;;;2.97;;
54263;SDS011;40178;53.042;6.406;2023-07-13T09:50:09;6.03;;;3.60;;
54263;SDS011;40178;53.042;6.406;2023-07-13T09:52:44;8.25;;;3.60;;
54263;SDS011;40178;53.042;6.406;2023-07-13T09:57:54;6.25;;;3.30;;
54263;SDS011;40178;53.042;6.406;2023-07-13T10:00:21;6.95;;;3.45;;
54263;SDS011;40178;53.042;6.406;2023-07-13T10:02:59;7.50;;;3.55;;
54263;SDS011;40178;53.042;6.406;2023-07-13T10:05:44;8.10;;;3.50;;
54263;SDS011;40178;53.042;6.406;2023-07-13T10:08:31;4.88;;;2.70;;
54263;SDS011;40178;53.042;6.406;2023-07-13T10:11:02;7.50;;;2.63;;
54263;SDS011;40178;53.042;6.406;2023-07-13T10:13:35;5.80;;;2.53;;
54263;SDS011;40178;53.042;6.406;2023-07-13T10:16:02;4.95;;;2.47;;
54263;SDS011;40178;53.042;6.406;2023-07-13T10:18:31;6.80;;;3.10;;
54263;SDS011;40178;53.042;6.406;2023-07-13T10:21:19;6.20;;;2.83;;
54263;SDS011;40178;53.042;6.406;2023-07-13T10:23:47;7.20;;;3.25;;
54263;SDS011;40178;53.042;6.406;2023-07-13T10:26:18;5.57;;;3.20;;
54263;SDS011;40178;53.042;6.406;2023-07-13T10:28:51;8.15;;;2.83;;
54263;SDS011;40178;53.042;6.406;2023-07-13T10:31:21;7.50;;;3.00;;
54263;SDS011;40178;53.042;6.406;2023-07-13T10:33:48;5.57;;;2.83;;
54263;SDS011;40178;53.042;6.406;2023-07-13T10:38:57;5.50;;;3.30;;
54263;SDS011;40178;53.042;6.406;2023-07-13T10:41:26;7.28;;;3.50;;
54263;SDS011;40178;53.042;6.406;2023-07-13T10:43:55;7.32;;;3.00;;
54263;SDS011;40178;53.042;6.406;2023-07-13T10:46:22;4.70;;;2.60;;
54263;SDS011;40178;53.042;6.406;2023-07-13T10:48:55;4.97;;;2.08;;
54263;SDS011;40178;53.042;6.406;2023-07-13T10:51:24;4.20;;;1.90;;
54263;SDS011;40178;53.042;6.406;2023-07-13T10:56:35;6.83;;;2.13;;
54263;SDS011;40178;53.042;6.406;2023-07-13T10:59:11;3.72;;;1.50;;
54263;SDS011;40178;53.042;6.406;2023-07-13T11:02:26;4.13;;;1.70;;
54263;SDS011;40178;53.042;6.406;2023-07-13T11:04:39;3.92;;;1.40;;
54263;SDS011;40178;53.042;6.406;2023-07-13T11:07:11;3.03;;;1.20;;
54263;SDS011;40178;53.042;6.406;2023-07-13T11:09:52;3.78;;;1.30;;
54263;SDS011;40178;53.042;6.406;2023-07-13T11:22:48;2.95;;;1.60;;
54263;SDS011;40178;53.042;6.406;2023-07-13T11:25:32;5.38;;;1.15;;
54263;SDS011;40178;53.042;6.406;2023-07-13T11:33:14;5.50;;;1.17;;
54263;SDS011;40178;53.042;6.406;2023-07-13T11:36:05;4.15;;;1.20;;
54263;SDS011;40178;53.042;6.406;2023-07-13T11:38:42;2.42;;;1.10;;
54263;SDS011;40178;53.042;6.406;2023-07-13T11:41:16;3.47;;;1.10;;
54263;SDS011;40178;53.042;6.406;2023-07-13T11:43:55;4.55;;;1.58;;
54263;SDS011;40178;53.042;6.406;2023-07-13T11:46:32;2.08;;;1.00;;
54263;SDS011;40178;53.042;6.406;2023-07-13T11:48:58;4.03;;;1.17;;
54263;SDS011;40178;53.042;6.406;2023-07-13T11:51:30;5.93;;;1.33;;
54263;SDS011;40178;53.042;6.406;2023-07-13T11:54:22;3.45;;;1.27;;
54263;SDS011;40178;53.042;6.406;2023-07-13T11:56:51;4.10;;;1.27;;
54263;SDS011;40178;53.042;6.406;2023-07-13T11:59:17;4.53;;;1.83;;
54263;SDS011;40178;53.042;6.406;2023-07-13T12:01:45;4.38;;;1.20;;
54263;SDS011;40178;53.042;6.406;2023-07-13T12:04:19;3.35;;;1.00;;
54263;SDS011;40178;53.042;6.406;2023-07-13T12:07:07;3.55;;;0.93;;
54263;SDS011;40178;53.042;6.406;2023-07-13T12:09:39;2.83;;;1.88;;
54263;SDS011;40178;53.042;6.406;2023-07-13T12:12:17;3.63;;;1.13;;
54263;SDS011;40178;53.042;6.406;2023-07-13T12:14:44;2.38;;;0.80;;
54263;SDS011;40178;53.042;6.406;2023-07-13T12:17:13;4.00;;;1.05;;
54263;SDS011;40178;53.042;6.406;2023-07-13T12:19:52;4.80;;;1.10;;
54263;SDS011;40178;53.042;6.406;2023-07-13T12:22:19;4.72;;;0.88;;
54263;SDS011;40178;53.042;6.406;2023-07-13T12:24:45;3.80;;;0.90;;
54263;SDS011;40178;53.042;6.406;2023-07-13T12:29:51;2.08;;;0.88;;
54263;SDS011;40178;53.042;6.406;2023-07-13T12:32:24;4.75;;;1.15;;
54263;SDS011;40178;53.042;6.406;2023-07-13T12:37:51;3.72;;;1.02;;
54263;SDS011;40178;53.042;6.406;2023-07-13T12:40:18;3.03;;;0.82;;
54263;SDS011;40178;53.042;6.406;2023-07-13T12:42:48;5.45;;;1.08;;
54263;SDS011;40178;53.042;6.406;2023-07-13T12:45:22;2.97;;;0.60;;
54263;SDS011;40178;53.042;6.406;2023-07-13T12:47:53;3.13;;;0.68;;
54263;SDS011;40178;53.042;6.406;2023-07-13T12:50:21;2.28;;;0.70;;
54263;SDS011;40178;53.042;6.406;2023-07-13T12:52:55;5.20;;;1.27;;
54263;SDS011;40178;53.042;6.406;2023-07-13T12:55:28;5.10;;;1.58;;
54263;SDS011;40178;53.042;6.406;2023-07-13T12:57:58;2.58;;;0.90;;
54263;SDS011;40178;53.042;6.406;2023-07-13T13:00:29;3.67;;;0.98;;
54263;SDS011;40178;53.042;6.406;2023-07-13T13:02:58;4.03;;;1.02;;
54263;SDS011;40178;53.042;6.406;2023-07-13T13:05:46;2.15;;;0.75;;
54263;SDS011;40178;53.042;6.406;2023-07-13T13:08:12;5.07;;;1.08;;
54263;SDS011;40178;53.042;6.406;2023-07-13T13:10:39;2.15;;;0.77;;
54263;SDS011;40178;53.042;6.406;2023-07-13T13:13:04;3.95;;;0.82;;
54263;SDS011;40178;53.042;6.406;2023-07-13T13:15:30;3.50;;;0.80;;
54263;SDS011;40178;53.042;6.406;2023-07-13T13:17:56;2.80;;;1.00;;
54263;SDS011;40178;53.042;6.406;2023-07-13T13:20:23;4.03;;;1.27;;
54263;SDS011;40178;53.042;6.406;2023-07-13T13:22:51;2.22;;;0.65;;
54263;SDS011;40178;53.042;6.406;2023-07-13T13:25:17;1.27;;;0.63;;
54263;SDS011;40178;53.042;6.406;2023-07-13T13:27:43;2.25;;;0.70;;
54263;SDS011;40178;53.042;6.406;2023-07-13T13:32:41;2.92;;;1.00;;
54263;SDS011;40178;53.042;6.406;2023-07-13T13:35:15;3.53;;;0.90;;
54263;SDS011;40178;53.042;6.406;2023-07-13T13:37:42;4.22;;;1.15;;
54263;SDS011;40178;53.042;6.406;2023-07-13T13:40:18;3.55;;;1.00;;
54263;SDS011;40178;53.042;6.406;2023-07-13T13:42:46;3.15;;;1.08;;
54263;SDS011;40178;53.042;6.406;2023-07-13T13:45:12;2.00;;;0.75;;
54263;SDS011;40178;53.042;6.406;2023-07-13T13:47:38;2.45;;;0.93;;
54263;SDS011;40178;53.042;6.406;2023-07-13T13:50:12;3.58;;;0.80;;
54263;SDS011;40178;53.042;6.406;2023-07-13T13:52:42;2.38;;;0.85;;
54263;SDS011;40178;53.042;6.406;2023-07-13T13:55:13;3.22;;;0.80;;
54263;SDS011;40178;53.042;6.406;2023-07-13T13:57:40;5.53;;;1.00;;
54263;SDS011;40178;53.042;6.406;2023-07-13T14:00:07;3.00;;;0.93;;
54263;SDS011;40178;53.042;6.406;2023-07-13T14:02:36;3.17;;;0.90;;
54263;SDS011;40178;53.042;6.406;2023-07-13T14:05:02;2.20;;;0.70;;
54263;SDS011;40178;53.042;6.406;2023-07-13T14:07:28;3.25;;;1.13;;
54263;SDS011;40178;53.042;6.406;2023-07-13T14:12:26;4.93;;;2.00;;
54263;SDS011;40178;53.042;6.406;2023-07-13T14:14:54;3.05;;;0.93;;
54263;SDS011;40178;53.042;6.406;2023-07-13T14:17:22;4.55;;;1.30;;
54263;SDS011;40178;53.042;6.406;2023-07-13T14:19:51;2.53;;;0.80;;
54263;SDS011;40178;53.042;6.406;2023-07-13T14:22:22;2.50;;;0.93;;
54263;SDS011;40178;53.042;6.406;2023-07-13T14:24:49;2.50;;;0.90;;
54263;SDS011;40178;53.042;6.406;2023-07-13T14:27:17;3.45;;;0.82;;
54263;SDS011;40178;53.042;6.406;2023-07-13T14:29:42;3.67;;;1.20;;
54263;SDS011;40178;53.042;6.406;2023-07-13T14:32:09;2.90;;;1.08;;
54263;SDS011;40178;53.042;6.406;2023-07-13T14:34:36;3.08;;;0.82;;
54263;SDS011;40178;53.042;6.406;2023-07-13T14:37:01;3.90;;;1.13;;
54263;SDS011;40178;53.042;6.406;2023-07-13T14:39:29;2.70;;;0.90;;
54263;SDS011;40178;53.042;6.406;2023-07-13T14:41:55;3.75;;;0.95;;
54263;SDS011;40178;53.042;6.406;2023-07-13T14:44:25;3.92;;;0.82;;
54263;SDS011;40178;53.042;6.406;2023-07-13T14:46:54;6.40;;;1.13;;
54263;SDS011;40178;53.042;6.406;2023-07-13T14:49:27;4.15;;;0.90;;
54263;SDS011;40178;53.042;6.406;2023-07-13T14:51:54;4.15;;;0.93;;
54263;SDS011;40178;53.042;6.406;2023-07-13T14:54:25;4.38;;;0.80;;
54263;SDS011;40178;53.042;6.406;2023-07-13T14:56:51;4.57;;;1.60;;
54263;SDS011;40178;53.042;6.406;2023-07-13T14:59:16;5.60;;;0.80;;
54263;SDS011;40178;53.042;6.406;2023-07-13T15:01:46;3.72;;;0.93;;
54263;SDS011;40178;53.042;6.406;2023-07-13T15:04:13;2.50;;;0.93;;
54263;SDS011;40178;53.042;6.406;2023-07-13T15:06:55;3.85;;;1.52;;
54263;SDS011;40178;53.042;6.406;2023-07-13T15:09:23;4.40;;;1.13;;
54263;SDS011;40178;53.042;6.406;2023-07-13T15:11:51;4.00;;;0.85;;
54263;SDS011;40178;53.042;6.406;2023-07-13T15:14:19;3.88;;;1.42;;
54263;SDS011;40178;53.042;6.406;2023-07-13T15:16:45;4.70;;;1.17;;
54263;SDS011;40178;53.042;6.406;2023-07-13T15:19:14;4.05;;;0.88;;
54263;SDS011;40178;53.042;6.406;2023-07-13T15:21:41;4.57;;;0.98;;
54263;SDS011;40178;53.042;6.406;2023-07-13T15:24:08;4.35;;;1.10;;
54263;SDS011;40178;53.042;6.406;2023-07-13T15:26:35;3.17;;;0.88;;
54263;SDS011;40178;53.042;6.406;2023-07-13T15:29:01;4.63;;;0.95;;
54263;SDS011;40178;53.042;6.406;2023-07-13T15:31:28;3.45;;;1.23;;
54263;SDS011;40178;53.042;6.406;2023-07-13T15:33:55;4.82;;;0.95;;
54263;SDS011;40178;53.042;6.406;2023-07-13T15:36:22;3.13;;;0.73;;
54263;SDS011;40178;53.042;6.406;2023-07-13T15:38:51;2.88;;;0.80;;
54263;SDS011;40178;53.042;6.406;2023-07-13T15:41:19;3.83;;;1.05;;